Time;durP1;ratioP1;P1;durP2;ratioP2;P2;SDS_P1;SDS_P2;PMS_P1;PMS_P2;Temp;Humidity;BMP_temperature;BMP_pressure;BME280_temperature;BME280_humidity;BME280_pressure;Samples;Min_cycle;Max_cycle;Signal;HPM_P1;HPM_P2
2022/11/04 07:25:45;;;;;;;;;1.00;1.00;;;;;11.45;70.28;99978.00;4893751;29;45508;-82
2022/11/04 07:28:13;;;;;;;;;1.25;0.75;;;;;11.46;70.01;99981.50;4883202;29;46315;-80
2022/11/04 07:31:38;;;;;;;;;3.00;2.00;;;;;11.75;70.01;100040.72;4935291;28;45406;-81
2022/11/04 07:34:06;;;;;;;;;3.33;2.00;;;;;11.69;69.97;100047.84;4912268;28;45552;-84
2022/11/04 07:36:34;;;;;;;;;1.00;1.00;;;;;11.59;69.90;100021.69;4944523;28;45393;-80
2022/11/04 07:53:33;;;;;;;;;1.25;1.25;;;;;11.83;69.68;100081.84;4917945;28;45442;-89
2022/11/04 07:59:07;;;;;;;;;1.75;1.75;;;;;11.72;69.49;100060.09;4903308;28;45591;-80
2022/11/04 08:02:01;;;;;;;;;0.67;0.33;;;;;11.98;69.66;100099.19;4923082;28;45629;-79
2022/11/04 08:04:29;;;;;;;;;3.50;2.00;;;;;11.87;69.44;100080.94;4922954;28;45410;-79
2022/11/04 08:06:57;;;;;;;;;2.67;1.67;;;;;11.91;69.29;100095.78;4905813;28;45600;-79
2022/11/04 08:09:23;;;;;;;;;2.00;1.75;;;;;11.83;69.28;100084.47;4905641;28;45592;-80
2022/11/04 08:12:04;;;;;;;;;2.50;2.50;;;;;11.67;69.35;100057.53;4906016;28;45805;-80
2022/11/04 08:14:37;;;;;;;;;6.25;1.75;;;;;12.05;69.37;100110.47;4922647;28;45187;-79
2022/11/04 08:17:02;;;;;;;;;1.67;1.67;;;;;11.85;68.79;100069.50;4904936;28;45470;-79
2022/11/04 08:19:28;;;;;;;;;1.25;1.00;;;;;12.07;69.21;100104.25;4933966;28;45387;-79
2022/11/04 08:22:28;;;;;;;;;4.00;1.33;;;;;12.18;69.13;100125.16;4940450;28;45471;-88
2022/11/04 08:25:40;;;;;;;;;2.25;2.00;;;;;12.28;68.71;100126.72;4920262;28;47741;-88
2022/11/04 08:31:51;;;;;;;;;4.25;1.50;;;;;12.39;68.49;100139.69;4864137;29;45379;-89
2022/11/04 08:38:58;;;;;;;;;3.25;3.00;;;;;12.33;68.39;100108.16;4863819;29;45811;-89
2022/11/04 08:41:36;;;;;;;;;3.00;3.00;;;;;12.25;67.95;100086.31;4792313;29;45235;-83
2022/11/04 08:44:20;;;;;;;;;2.00;2.00;;;;;12.51;68.13;100123.59;4777480;29;45460;-81
2022/11/04 08:46:46;;;;;;;;;2.50;2.00;;;;;12.54;67.44;100131.44;4795945;29;45321;-77
2022/11/04 08:49:23;;;;;;;;;2.00;2.00;;;;;12.50;67.51;100120.97;4798803;29;45659;-85
2022/11/04 08:52:17;;;;;;;;;2.75;2.50;;;;;12.72;67.79;100138.09;4853739;29;45428;-81
2022/11/04 08:54:44;;;;;;;;;3.75;1.75;;;;;12.73;67.30;100145.09;4853473;29;45550;-78
2022/11/04 08:57:09;;;;;;;;;3.00;2.75;;;;;12.82;67.03;100151.09;4900048;29;45428;-80
2022/11/04 09:07:11;;;;;;;;;2.33;1.00;;;;;13.23;66.38;100205.63;4862178;29;45482;-80
2022/11/04 09:09:54;;;;;;;;;3.25;2.00;;;;;13.18;65.99;100191.66;4828619;29;45610;-79
2022/11/04 09:12:22;;;;;;;;;1.00;1.00;;;;;12.89;66.29;100148.28;4876252;29;45523;-80
2022/11/04 09:15:32;;;;;;;;;2.33;1.67;;;;;13.33;65.79;100224.81;4927985;28;45439;-80
2022/11/04 09:18:03;;;;;;;;;0.50;0.50;;;;;13.05;65.98;100177.00;4917119;28;45351;-79
2022/11/04 09:20:44;;;;;;;;;4.50;3.25;;;;;13.26;65.68;100202.97;4928221;28;45499;-83
2022/11/04 09:23:22;;;;;;;;;4.25;3.50;;;;;13.31;65.67;100201.09;4953695;28;46830;-84
2022/11/04 09:26:29;;;;;;;;;17.75;13.25;;;;;13.71;65.65;100241.53;4940755;28;45221;-83
2022/11/04 09:29:54;;;;;;;;;4.00;2.67;;;;;13.45;65.45;100191.03;4917059;28;45478;-81
2022/11/04 09:32:20;;;;;;;;;1.00;1.00;;;;;13.69;65.17;100207.22;4931154;28;45498;-80
2022/11/04 09:34:58;;;;;;;;;2.00;2.00;;;;;13.70;65.18;100197.50;4923235;28;45921;-85
2022/11/04 09:39:05;;;;;;;;;4.00;4.00;;;;;13.75;64.53;100201.75;4923282;28;45255;-83
2022/11/04 09:41:27;;;;;;;;;3.00;2.00;;;;;14.11;64.22;100265.22;4877882;29;45423;-80
2022/11/04 09:44:14;;;;;;;;;3.00;2.00;;;;;13.97;63.80;100259.41;4878094;29;45415;-80
2022/11/04 09:46:48;;;;;;;;;2.50;2.00;;;;;13.89;63.91;100255.19;4870776;29;47360;-81
2022/11/04 09:49:15;;;;;;;;;4.75;3.00;;;;;13.87;63.32;100269.34;4879646;28;45316;-79
2022/11/04 09:51:41;;;;;;;;;1.00;1.00;;;;;13.76;63.22;100252.88;4923181;28;45265;-78
2022/11/04 09:55:04;;;;;;;;;2.67;1.67;;;;;13.65;63.33;100242.56;4939892;28;45198;-80
2022/11/04 10:04:34;;;;;;;;;2.00;1.00;;;;;14.34;63.03;100302.56;4806746;29;45521;-85
2022/11/04 10:18:41;;;;;;;;;2.00;1.00;;;;;14.38;61.51;100337.78;4823069;29;45490;-81
2022/11/04 10:21:13;;;;;;;;;1.00;1.00;;;;;14.46;61.21;100349.06;4863838;28;45308;-78
2022/11/04 10:23:44;;;;;;;;;3.33;3.33;;;;;14.56;61.17;100336.44;4924756;28;48020;-76
2022/11/04 10:26:16;;;;;;;;;2.00;0.67;;;;;14.86;60.90;100345.38;4925778;28;45458;-76
2022/11/04 10:29:03;;;;;;;;;1.00;1.00;;;;;15.24;60.51;100335.44;4926182;28;45216;-88
2022/11/04 10:31:54;;;;;;;;;1.00;1.00;;;;;15.87;59.66;100352.09;4925738;28;45538;-82
2022/11/04 10:35:15;;;;;;;;;1.00;1.00;;;;;17.43;59.35;100375.06;4925458;28;47024;-87
2022/11/04 10:37:41;;;;;;;;;2.00;2.00;;;;;19.94;57.04;100375.88;4890373;28;45446;-80
2022/11/04 10:40:31;;;;;;;;;1.00;1.00;;;;;21.73;53.31;100358.53;4925768;28;45390;-81
2022/11/04 10:42:59;;;;;;;;;2.00;1.00;;;;;22.53;49.70;100372.69;4925720;28;45310;-80
2022/11/04 10:46:02;;;;;;;;;1.00;0.67;;;;;23.23;47.86;100366.69;4954141;28;45470;-81
2022/11/04 10:48:56;;;;;;;;;;;;;;;;;;;;;
2022/11/04 10:51:43;;;;;;;;;1.67;1.67;;;;;22.34;45.93;100386.31;4941458;28;67905;-88
2022/11/04 10:54:12;;;;;;;;;4.67;2.67;;;;;21.79;45.29;100395.69;4925308;28;45547;-80
2022/11/04 13:17:27;;;;;;;;;3.00;2.33;;;;;20.40;45.09;100687.34;5295088;23;45816;-77
2022/11/04 13:25:03;;;;;;;;;;;;;;;;;;;;;
2022/11/04 13:27:38;;;;;;;;;2.67;2.67;;;;;18.62;48.30;100692.00;4815010;29;45538;-79
2022/11/04 13:30:24;;;;;;;;;2.67;2.00;;;;;19.79;49.57;100690.91;4810396;29;45399;-80
2022/11/04 13:33:06;;;;;;;;;;;;;;;;;;;;;
2022/11/04 13:36:17;;;;;;;;;2.00;2.00;;;;;19.95;46.90;100706.28;4878879;28;72724;-80
2022/11/04 13:39:12;;;;;;;;;6.00;4.33;;;;;19.60;47.35;100701.47;4893202;28;46823;-79
2022/11/04 13:41:58;;;;;;;;;2.00;2.00;;;;;20.10;47.01;100710.09;4902642;28;45497;-79
2022/11/04 13:45:02;;;;;;;;;3.67;3.00;;;;;20.42;46.67;100717.56;4915709;28;45491;-80
2022/11/04 13:48:06;;;;;;;;;2.67;2.00;;;;;19.96;46.05;100716.91;4916178;28;45544;-78
2022/11/04 13:50:48;;;;;;;;;2.00;2.00;;;;;19.32;46.87;100720.41;4917315;28;46384;-79
2022/11/04 13:57:03;;;;;;;;;3.33;1.00;;;;;18.38;48.24;100731.13;4928465;28;45185;-79
2022/11/04 14:03:19;;;;;;;;;1.00;1.00;;;;;17.43;50.12;100768.97;4858687;29;45275;-83
2022/11/04 14:06:01;;;;;;;;;3.00;3.00;;;;;17.27;51.00;100771.22;4915100;28;45552;-78
2022/11/04 14:08:26;;;;;;;;;3.00;3.00;;;;;17.30;50.87;100783.56;4932703;28;45325;-77
2022/11/04 14:10:52;;;;;;;;;2.00;2.00;;;;;17.19;51.25;100781.22;4963099;28;45167;-76
2022/11/04 14:13:28;;;;;;;;;3.00;3.00;;;;;17.03;51.29;100794.13;4963092;28;46350;-78
2022/11/04 14:16:22;;;;;;;;;3.67;2.33;;;;;16.86;51.41;100794.59;4936322;28;45200;-79
2022/11/04 14:18:49;;;;;;;;;3.00;3.00;;;;;16.68;51.51;100809.28;4956362;28;45450;-77
2022/11/04 14:21:25;;;;;;;;;7.00;4.67;;;;;16.41;52.21;100791.41;4938728;28;45241;-77
2022/11/04 14:23:59;;;;;;;;;4.00;4.00;;;;;16.34;52.86;100819.94;4955459;28;45564;-77
2022/11/04 14:26:29;;;;;;;;;5.50;3.50;;;;;16.02;52.63;100816.31;4943488;28;45296;-76
2022/11/04 14:29:07;;;;;;;;;12.00;8.25;;;;;15.81;53.10;100828.34;4943484;28;45416;-76
2022/11/04 14:31:41;;;;;;;;;6.67;5.00;;;;;15.62;53.61;100825.22;4943243;28;45192;-77
2022/11/04 14:34:32;;;;;;;;;5.00;5.00;;;;;15.51;54.20;100837.88;4943354;28;46523;-77
2022/11/04 14:37:14;;;;;;;;;3.67;3.67;;;;;15.34;54.39;100835.59;4934511;28;45324;-77
2022/11/04 14:39:41;;;;;;;;;5.67;4.67;;;;;15.30;54.94;100846.28;4962499;28;45232;-77
2022/11/04 14:42:15;;;;;;;;;5.67;5.67;;;;;15.24;55.15;100838.47;4962609;28;45441;-78
2022/11/04 14:44:40;;;;;;;;;3.33;2.67;;;;;15.34;55.42;100861.22;4944225;28;45402;-76
2022/11/04 14:47:14;;;;;;;;;3.00;3.00;;;;;15.43;55.54;100871.66;4937250;28;45447;-77
2022/11/04 14:49:45;;;;;;;;;3.33;3.33;;;;;15.47;55.20;100870.66;4943185;28;45268;-76
2022/11/04 14:52:23;;;;;;;;;4.00;2.67;;;;;15.54;55.40;100879.38;4942724;28;45435;-80
2022/11/04 14:54:55;;;;;;;;;5.00;5.00;;;;;15.44;55.18;100865.44;4951002;28;45738;-78
2022/11/04 14:57:22;;;;;;;;;6.00;6.00;;;;;15.49;55.36;100862.69;4931643;28;45447;-78
2022/11/04 14:59:48;;;;;;;;;3.00;3.00;;;;;15.73;54.75;100890.47;4952737;28;45177;-77
2022/11/04 15:02:27;;;;;;;;;5.00;4.00;;;;;15.70;54.47;100869.31;4941368;28;45367;-77
2022/11/04 15:04:57;;;;;;;;;2.33;2.33;;;;;15.88;54.80;100900.75;4950024;28;45614;-76
2022/11/04 15:07:25;;;;;;;;;2.00;1.00;;;;;15.89;54.12;100897.19;4942497;28;45288;-76
2022/11/04 15:09:51;;;;;;;;;3.00;2.33;;;;;15.73;53.44;100883.38;4936987;28;45472;-76
2022/11/04 15:15:25;;;;;;;;;0.00;0.00;;;;;15.68;52.92;100893.19;4942566;28;45435;-77
2022/11/04 15:17:52;;;;;;;;;2.00;2.00;;;;;15.59;52.77;100909.34;4950064;28;45249;-76
2022/11/04 15:20:23;;;;;;;;;3.00;3.00;;;;;15.47;53.06;100914.91;4956688;28;45505;-76
2022/11/04 15:22:49;;;;;;;;;2.00;0.33;;;;;15.42;53.00;100933.56;4937392;28;45543;-75
2022/11/04 15:25:14;;;;;;;;;1.00;1.00;;;;;15.33;52.68;100939.94;4961618;28;45557;-76
2022/11/04 15:27:40;;;;;;;;;3.00;2.00;;;;;15.11;52.31;100931.53;4929604;28;45419;-75
2022/11/04 15:30:27;;;;;;;;;1.00;1.00;;;;;14.99;52.54;100937.06;4961464;28;45978;-75
2022/11/04 15:32:58;;;;;;;;;2.00;2.00;;;;;14.89;52.64;100936.38;4944279;28;45425;-76
2022/11/04 15:35:27;;;;;;;;;1.00;1.00;;;;;14.85;53.01;100932.03;4943745;28;48130;-76
2022/11/04 15:37:54;;;;;;;;;2.00;1.00;;;;;14.70;52.58;100913.75;4961951;28;45227;-76
2022/11/04 15:40:51;;;;;;;;;1.00;1.00;;;;;14.72;52.76;100926.06;4961453;28;45281;-84
2022/11/04 15:43:17;;;;;;;;;2.00;2.00;;;;;14.47;52.85;100896.47;4932320;28;45541;-76
2022/11/04 15:45:50;;;;;;;;;3.00;3.00;;;;;14.41;53.41;100909.81;4961933;28;46385;-76
2022/11/04 15:48:36;;;;;;;;;2.00;1.00;;;;;14.46;53.04;100938.84;4953272;28;45445;-76
2022/11/04 15:51:33;;;;;;;;;1.33;1.33;;;;;14.36;53.65;100934.63;4942335;28;45367;-81
2022/11/04 15:54:06;;;;;;;;;1.67;1.67;;;;;14.05;53.66;100916.56;4941462;28;45406;-76
2022/11/04 15:56:38;;;;;;;;;1.67;1.67;;;;;13.98;53.98;100923.75;4941711;28;45509;-76
2022/11/04 15:59:11;;;;;;;;;3.00;2.00;;;;;13.89;54.74;100940.59;4941970;28;45311;-75
2022/11/04 16:01:44;;;;;;;;;1.33;1.33;;;;;13.79;55.37;100951.34;4942238;28;45309;-76
2022/11/04 16:04:10;;;;;;;;;1.00;1.00;;;;;13.67;55.00;100955.91;4942128;28;45502;-76
2022/11/04 16:06:43;;;;;;;;;3.00;3.00;;;;;13.72;55.67;100974.38;4924403;28;47058;-76
2022/11/04 16:09:10;;;;;;;;;1.00;1.00;;;;;13.66;56.38;100983.28;4942042;28;45414;-75
2022/11/04 16:11:36;;;;;;;;;0.00;0.00;;;;;13.44;55.61;100956.22;4941529;28;45415;-75
2022/11/04 16:14:21;;;;;;;;;2.00;1.00;;;;;13.39;56.53;100963.31;4930998;28;46192;-76
2022/11/04 16:16:49;;;;;;;;;1.00;1.00;;;;;13.30;56.63;100968.69;4959609;28;45318;-76
2022/11/04 16:19:24;;;;;;;;;3.33;2.00;;;;;13.23;57.08;100981.09;4951455;28;45224;-76
2022/11/04 16:21:59;;;;;;;;;1.00;1.00;;;;;13.14;57.37;100994.41;4941685;28;45304;-75
2022/11/04 16:24:29;;;;;;;;;3.00;2.00;;;;;13.03;57.55;101004.22;4941346;28;45295;-75
2022/11/04 16:26:56;;;;;;;;;2.00;1.33;;;;;13.09;58.35;101024.41;4941398;28;45484;-75
2022/11/04 16:29:26;;;;;;;;;5.75;5.75;;;;;12.99;58.24;101029.81;4941521;28;45279;-76
2022/11/04 16:32:17;;;;;;;;;3.00;3.00;;;;;13.05;58.81;101055.28;4924254;28;45311;-75
2022/11/04 16:34:48;;;;;;;;;2.00;1.00;;;;;12.89;59.12;101035.19;4924311;28;45348;-78
2022/11/04 16:37:27;;;;;;;;;3.50;3.00;;;;;13.01;59.21;101062.34;4934020;28;46784;-77
2022/11/04 16:39:55;;;;;;;;;3.75;3.00;;;;;12.90;59.66;101042.19;4954277;28;45269;-79
2022/11/04 16:42:21;;;;;;;;;3.00;3.00;;;;;12.73;59.38;101023.84;4935780;28;45671;-77
2022/11/04 16:44:51;;;;;;;;;2.33;2.33;;;;;12.99;59.43;101072.09;4940945;28;45426;-76
2022/11/04 16:47:17;;;;;;;;;5.50;5.50;;;;;12.72;59.95;101030.00;4932378;28;46783;-77
2022/11/04 16:49:43;;;;;;;;;3.00;3.00;;;;;12.66;60.01;101028.31;4923049;28;45503;-77
2022/11/04 16:52:24;;;;;;;;;2.75;2.75;;;;;12.71;60.22;101038.84;4923150;28;45377;-76
2022/11/04 16:54:50;;;;;;;;;4.00;2.00;;;;;12.75;60.40;101061.69;4922478;28;46381;-77
2022/11/04 16:57:22;;;;;;;;;2.00;2.00;;;;;12.83;60.52;101088.97;4935345;28;46718;-77
2022/11/04 16:59:47;;;;;;;;;3.33;2.33;;;;;12.82;60.75;101092.47;4940796;28;45518;-76
2022/11/04 17:02:30;;;;;;;;;5.75;4.25;;;;;12.66;60.65;101081.13;4935971;28;45728;-78
2022/11/04 17:04:58;;;;;;;;;3.00;3.00;;;;;12.66;60.71;101086.41;4923279;28;45638;-78
2022/11/04 17:07:24;;;;;;;;;3.00;3.00;;;;;12.77;60.83;101110.97;4922391;28;46748;-76
2022/11/04 17:09:51;;;;;;;;;4.25;3.75;;;;;12.68;60.99;101096.97;4922952;28;45293;-77
2022/11/04 17:12:20;;;;;;;;;4.25;3.75;;;;;12.43;60.82;101068.09;4940856;28;45411;-77
2022/11/04 17:14:48;;;;;;;;;6.00;5.50;;;;;12.49;61.16;101094.44;4952116;28;45247;-78
2022/11/04 17:17:16;;;;;;;;;5.25;4.00;;;;;12.77;60.97;101155.91;4929436;28;46473;-77
2022/11/04 17:19:41;;;;;;;;;4.25;4.25;;;;;12.50;61.12;101121.72;4925495;28;45339;-76
2022/11/04 17:22:10;;;;;;;;;5.00;4.75;;;;;12.49;61.50;101138.47;4940530;28;45180;-76
2022/11/04 17:24:44;;;;;;;;;6.75;5.25;;;;;12.60;61.40;101164.84;4940224;28;45435;-77
2022/11/04 17:27:13;;;;;;;;;7.00;7.00;;;;;12.54;61.80;101156.06;4946717;28;45427;-77
2022/11/04 17:29:41;;;;;;;;;6.25;6.25;;;;;12.36;61.97;101141.16;4934301;28;45484;-76
2022/11/04 17:32:08;;;;;;;;;8.50;5.75;;;;;12.46;61.88;101171.06;4940483;28;45304;-76
2022/11/04 17:34:33;;;;;;;;;8.75;8.00;;;;;12.20;62.08;101144.75;4935599;28;45485;-76
2022/11/04 17:36:59;;;;;;;;;6.75;5.25;;;;;12.28;61.87;101171.13;4922470;28;45900;-75
2022/11/04 17:39:25;;;;;;;;;6.00;5.00;;;;;12.31;61.96;101192.22;4940845;28;45298;-78
2022/11/04 17:44:48;;;;;;;;;43.25;34.75;;;;;12.24;62.70;101199.31;4941880;28;45363;-78
2022/11/04 17:47:16;;;;;;;;;15.25;9.75;;;;;12.16;62.62;101197.56;4950536;28;45478;-77
2022/11/04 17:49:42;;;;;;;;;8.00;7.50;;;;;11.81;63.17;101138.69;4940537;28;45181;-77
2022/11/04 17:53:03;;;;;;;;;16.50;13.25;;;;;12.13;63.39;101223.09;4940163;28;45254;-79
2022/11/04 17:55:29;;;;;;;;;7.75;7.75;;;;;11.89;63.62;101199.38;4934224;28;45366;-77
2022/11/04 17:57:54;;;;;;;;;10.50;9.00;;;;;11.86;63.91;101209.94;4930652;28;46877;-76
2022/11/04 18:00:23;;;;;;;;;9.00;9.00;;;;;11.86;63.76;101215.22;4928026;28;45286;-76
2022/11/04 18:02:48;;;;;;;;;10.50;9.75;;;;;11.92;63.96;101244.22;4940592;28;45246;-76
2022/11/04 18:05:14;;;;;;;;;10.00;10.00;;;;;11.77;64.03;101245.09;4940098;28;45229;-76
2022/11/04 18:07:39;;;;;;;;;12.75;9.50;;;;;11.72;64.20;101238.94;4940304;28;46445;-76
2022/11/04 18:10:05;;;;;;;;;8.75;6.75;;;;;11.63;64.39;101241.59;4940092;28;45168;-76
2022/11/04 18:12:36;;;;;;;;;12.75;9.25;;;;;11.51;64.45;101233.66;4940379;28;45310;-76
2022/11/04 18:15:10;;;;;;;;;8.75;8.75;;;;;11.37;64.46;101220.47;4940243;28;45237;-76
2022/11/04 18:17:38;;;;;;;;;6.50;6.25;;;;;11.40;64.29;101245.09;4945530;28;45490;-76
2022/11/04 18:20:04;;;;;;;;;9.75;8.00;;;;;11.37;64.48;101252.13;4942718;28;45261;-76
2022/11/04 18:22:29;;;;;;;;;8.75;7.75;;;;;11.42;64.36;101274.97;4940142;28;45257;-77
2022/11/04 18:24:55;;;;;;;;;11.50;9.00;;;;;11.34;64.58;101265.31;4939645;28;45295;-76
2022/11/04 18:27:20;;;;;;;;;8.00;7.50;;;;;11.42;64.51;101292.56;4922416;28;46234;-77
2022/11/04 18:29:46;;;;;;;;;11.50;9.00;;;;;11.37;64.65;101279.34;4953117;28;45445;-77
2022/11/04 18:32:11;;;;;;;;;13.00;11.25;;;;;11.29;64.31;101278.47;4932563;28;45420;-76
2022/11/04 18:34:36;;;;;;;;;8.00;8.00;;;;;11.08;64.45;101247.66;4959327;28;45314;-76
2022/11/04 18:37:02;;;;;;;;;12.25;10.25;;;;;11.35;64.39;101296.91;4931188;28;47236;-76
2022/11/04 18:39:28;;;;;;;;;14.00;13.75;;;;;11.20;64.63;101273.16;4941431;28;45258;-76
2022/11/04 18:41:53;;;;;;;;;11.75;8.50;;;;;11.25;64.28;101296.03;4926291;28;45329;-77
2022/11/04 18:44:21;;;;;;;;;11.00;9.00;;;;;11.10;64.48;101285.44;4941790;28;45511;-76
2022/11/04 18:46:47;;;;;;;;;12.00;11.00;;;;;10.99;64.42;101274.88;4925725;28;47367;-76
2022/11/04 18:49:13;;;;;;;;;10.50;8.75;;;;;11.19;64.58;101310.94;4938824;28;45244;-76
2022/11/04 18:51:39;;;;;;;;;42.00;35.00;;;;;11.01;64.59;101280.13;4906665;28;45287;-76
2022/11/04 18:54:06;;;;;;;;;28.50;25.75;;;;;11.04;64.62;101288.06;4923550;28;45509;-76
2022/11/04 18:56:31;;;;;;;;;34.75;26.75;;;;;11.03;64.65;101305.59;4923659;28;45534;-76
2022/11/04 18:58:57;;;;;;;;;16.75;14.75;;;;;11.01;64.67;101301.22;4923610;28;45416;-76
2022/11/04 19:01:25;;;;;;;;;16.25;15.75;;;;;10.78;64.68;101264.28;4907105;28;45333;-77
2022/11/04 19:03:51;;;;;;;;;21.50;18.25;;;;;10.84;64.62;101277.44;4906820;28;45802;-75
2022/11/04 19:06:20;;;;;;;;;18.00;17.75;;;;;10.93;65.01;101306.47;4922545;28;47901;-76
2022/11/04 19:08:46;;;;;;;;;21.00;17.75;;;;;11.03;65.00;101334.59;4906267;28;45314;-76
2022/11/04 19:11:23;;;;;;;;;17.25;14.00;;;;;11.07;64.99;101340.78;4922665;28;45495;-76
2022/11/04 19:13:51;;;;;;;;;14.25;13.00;;;;;10.93;64.97;101324.91;4906427;28;45415;-76
2022/11/04 19:16:16;;;;;;;;;15.50;15.00;;;;;10.76;64.96;101311.66;4923520;28;45430;-76
2022/11/04 19:18:41;;;;;;;;;17.50;16.00;;;;;10.77;65.13;101312.53;4933434;28;45280;-76
2022/11/04 19:21:10;;;;;;;;;17.75;16.50;;;;;10.54;65.16;101281.72;4924022;28;45141;-76
2022/11/04 19:23:37;;;;;;;;;14.00;13.50;;;;;10.78;65.22;101330.09;4923448;28;45511;-76
2022/11/04 19:26:15;;;;;;;;;16.75;15.00;;;;;10.78;65.19;101340.66;4923782;28;46256;-76
2022/11/04 19:28:43;;;;;;;;;16.00;13.50;;;;;10.76;65.74;101345.00;4924165;28;45328;-76
2022/11/04 19:31:11;;;;;;;;;17.75;14.25;;;;;10.44;65.49;101293.06;4923761;28;45332;-76
2022/11/04 19:33:37;;;;;;;;;15.75;13.25;;;;;10.41;65.41;101300.06;4906744;28;45492;-75
2022/11/04 19:36:04;;;;;;;;;17.25;17.25;;;;;10.52;65.67;101332.59;4906116;28;46851;-76
2022/11/04 19:38:29;;;;;;;;;11.25;10.25;;;;;10.47;65.88;101345.72;4923599;28;45438;-76
2022/11/04 19:41:00;;;;;;;;;14.25;14.25;;;;;10.50;65.79;101361.53;4906824;28;45517;-76
2022/11/04 19:43:26;;;;;;;;;13.25;12.25;;;;;10.36;65.84;101347.41;4925122;28;45529;-76
2022/11/04 19:45:51;;;;;;;;;12.50;11.50;;;;;10.43;66.24;101378.19;4925025;28;47887;-76
2022/11/04 19:48:18;;;;;;;;;15.00;12.75;;;;;10.24;66.45;101339.41;4917055;28;45478;-76
2022/11/04 19:50:46;;;;;;;;;13.00;11.75;;;;;10.45;66.23;101380.81;4922042;28;45455;-76
2022/11/04 19:53:13;;;;;;;;;12.25;11.00;;;;;10.22;66.26;101360.44;4905789;28;45433;-76
2022/11/04 19:55:39;;;;;;;;;10.75;9.75;;;;;10.18;66.34;101360.38;4921475;28;46775;-75
2022/11/04 19:58:04;;;;;;;;;15.75;12.75;;;;;10.34;66.69;101396.50;4923312;28;45252;-76
2022/11/04 20:00:31;;;;;;;;;9.75;9.00;;;;;10.24;66.67;101381.50;4906323;28;45368;-76
2022/11/04 20:02:57;;;;;;;;;15.00;12.00;;;;;10.15;66.80;101369.13;4923477;28;45551;-76
2022/11/04 20:05:23;;;;;;;;;15.25;13.00;;;;;10.08;66.88;101368.22;4923309;28;45470;-76
2022/11/04 20:07:53;;;;;;;;;18.00;13.00;;;;;10.21;66.91;101408.69;4923156;28;45339;-76
2022/11/04 20:10:20;;;;;;;;;11.75;10.75;;;;;9.98;67.44;101376.91;4918428;28;45623;-76
2022/11/04 20:15:30;;;;;;;;;17.25;14.00;;;;;9.86;67.26;101368.88;4922938;28;45243;-76
2022/11/04 20:17:55;;;;;;;;;13.25;13.25;;;;;10.02;67.50;101386.56;4929996;28;45246;-76
2022/11/04 20:20:21;;;;;;;;;14.00;10.75;;;;;10.02;67.35;101396.22;4907742;28;45560;-76
2022/11/04 20:22:46;;;;;;;;;12.00;10.50;;;;;10.04;67.50;101405.88;4905972;28;45506;-76
2022/11/04 20:25:12;;;;;;;;;13.75;12.75;;;;;10.08;67.58;101405.06;4922780;28;46486;-76
2022/11/04 20:27:37;;;;;;;;;18.50;13.50;;;;;9.93;67.57;101383.88;4923136;28;45454;-76
2022/11/04 20:30:04;;;;;;;;;14.50;13.50;;;;;10.10;67.56;101421.75;4905785;28;45442;-76
2022/11/04 20:32:31;;;;;;;;;18.75;15.00;;;;;10.10;67.32;101410.31;4905900;28;45462;-76
2022/11/04 20:34:59;;;;;;;;;13.75;13.00;;;;;10.04;67.27;101405.00;4922682;28;45244;-76
2022/11/04 20:37:26;;;;;;;;;14.00;11.75;;;;;10.06;67.13;101417.31;4922856;28;45357;-76
2022/11/04 20:39:52;;;;;;;;;18.00;16.50;;;;;10.04;67.42;101411.13;4935581;28;45340;-76
2022/11/04 20:42:17;;;;;;;;;16.00;12.50;;;;;10.03;67.79;101409.38;4934930;28;45438;-76
2022/11/04 20:44:43;;;;;;;;;20.25;19.00;;;;;10.00;67.57;101409.38;4941880;28;45397;-75
2022/11/04 20:47:08;;;;;;;;;20.25;19.25;;;;;9.86;67.84;101387.28;4924817;28;45449;-76
2022/11/04 20:49:33;;;;;;;;;16.25;13.75;;;;;9.86;67.81;101389.91;4906369;28;45646;-76
2022/11/04 20:51:59;;;;;;;;;16.75;14.00;;;;;10.08;67.49;101428.72;4922812;28;45478;-76
2022/11/04 20:54:25;;;;;;;;;18.00;15.75;;;;;9.73;67.82;101370.53;4922265;28;45498;-76
2022/11/04 20:56:50;;;;;;;;;22.75;20.00;;;;;9.91;67.84;101418.03;4935027;28;45465;-76
2022/11/04 20:59:17;;;;;;;;;21.25;17.75;;;;;9.82;68.15;101402.16;4923214;28;45593;-76
2022/11/04 21:01:45;;;;;;;;;18.50;14.25;;;;;10.00;67.93;101445.31;4917084;28;45252;-76
2022/11/04 21:04:17;;;;;;;;;18.50;15.00;;;;;9.91;68.01;101433.81;4922459;28;45482;-76
2022/11/04 21:06:44;;;;;;;;;22.25;20.75;;;;;10.07;67.76;101474.31;4922344;28;45309;-76
2022/11/04 21:09:12;;;;;;;;;22.00;19.50;;;;;9.84;67.95;101439.03;4905124;28;45252;-76
2022/11/04 21:11:38;;;;;;;;;20.00;18.50;;;;;9.96;68.20;101465.44;4920931;28;45329;-76
2022/11/04 21:14:05;;;;;;;;;20.00;19.25;;;;;10.05;68.13;101478.69;4922458;28;45440;-76
2022/11/04 21:16:32;;;;;;;;;27.00;20.50;;;;;9.89;68.38;101458.31;4921839;28;45308;-76
2022/11/04 21:18:58;;;;;;;;;59.75;48.00;;;;;9.66;68.38;101411.66;4929914;28;45329;-76
2022/11/04 21:21:26;;;;;;;;;44.50;35.50;;;;;9.77;68.52;101434.53;4922261;28;45238;-76
2022/11/04 21:23:56;;;;;;;;;37.25;29.00;;;;;9.88;68.37;101452.19;4921988;28;46194;-77
2022/11/04 21:26:24;;;;;;;;;27.25;22.75;;;;;9.82;68.20;101440.75;4920508;28;45308;-77
2022/11/04 21:28:57;;;;;;;;;56.50;44.50;;;;;9.95;68.43;101476.81;4922272;28;45255;-76
2022/11/04 21:31:24;;;;;;;;;30.50;28.50;;;;;9.74;68.42;101439.78;4922026;28;45538;-76
2022/11/04 21:33:51;;;;;;;;;23.00;20.00;;;;;10.05;68.54;101502.38;4922043;28;46349;-76
2022/11/04 21:36:17;;;;;;;;;23.00;22.25;;;;;10.02;68.29;101497.03;4904613;28;46054;-76
2022/11/04 21:38:43;;;;;;;;;22.50;21.25;;;;;9.71;68.35;101449.38;4904591;28;45485;-76
2022/11/04 21:41:14;;;;;;;;;26.25;21.75;;;;;9.77;68.34;101466.97;4924780;28;45456;-76
2022/11/04 21:43:40;;;;;;;;;23.75;21.00;;;;;9.81;68.46;101470.50;4923760;28;47759;-76
2022/11/04 21:46:08;;;;;;;;;23.75;22.75;;;;;9.68;68.26;101464.25;4940910;28;45216;-76
2022/11/04 21:48:35;;;;;;;;;22.25;21.75;;;;;9.78;68.47;101486.25;4930521;28;45403;-76
2022/11/04 21:51:06;;;;;;;;;22.00;19.00;;;;;9.78;68.27;101496.78;4921562;28;45481;-76
2022/11/04 21:53:32;;;;;;;;;20.75;15.75;;;;;9.61;68.40;101468.53;4921314;28;45539;-76
2022/11/04 21:56:11;;;;;;;;;18.50;16.00;;;;;9.54;68.49;101460.56;4920160;28;45384;-76
2022/11/04 21:58:37;;;;;;;;;17.50;14.75;;;;;9.71;68.46;101501.09;4921762;28;45233;-76
2022/11/04 22:01:05;;;;;;;;;18.25;14.25;;;;;9.47;68.62;101467.50;4921894;28;45298;-76
2022/11/04 22:03:32;;;;;;;;;19.25;16.00;;;;;9.63;68.57;101502.75;4917088;28;46356;-76
2022/11/04 22:06:04;;;;;;;;;15.75;15.50;;;;;9.54;68.57;101485.09;4904388;28;45463;-76
2022/11/04 22:08:30;;;;;;;;;18.25;15.00;;;;;9.49;68.82;101473.66;4921263;28;45229;-76
2022/11/04 22:11:04;;;;;;;;;18.00;15.00;;;;;9.67;68.95;101508.03;4921624;28;45546;-76
2022/11/04 22:13:29;;;;;;;;;16.00;13.25;;;;;9.50;69.16;101485.94;4904235;28;47347;-76
2022/11/04 22:15:58;;;;;;;;;15.50;13.50;;;;;9.46;68.93;101481.50;4924736;28;45370;-76
2022/11/04 22:18:33;;;;;;;;;19.75;15.00;;;;;9.53;69.16;101501.75;4916492;28;45320;-76
2022/11/04 22:21:05;;;;;;;;;15.75;15.25;;;;;9.23;69.03;101447.06;4907511;28;45419;-76
2022/11/04 22:23:33;;;;;;;;;14.50;14.25;;;;;9.34;69.06;101471.72;4924268;28;46353;-76
2022/11/04 22:26:07;;;;;;;;;15.75;13.50;;;;;9.57;69.13;101511.44;4919023;28;45351;-77
2022/11/04 22:28:32;;;;;;;;;22.00;18.75;;;;;9.25;69.07;101477.75;4925122;28;45317;-77
2022/11/04 22:31:10;;;;;;;;;16.75;13.00;;;;;9.17;69.12;101457.50;4937414;28;45343;-76
2022/11/04 22:33:36;;;;;;;;;13.75;13.75;;;;;9.19;69.09;101467.13;4907333;28;47218;-76
2022/11/04 22:36:02;;;;;;;;;18.75;17.25;;;;;9.48;69.25;101524.44;4923106;28;45472;-76
2022/11/04 22:38:29;;;;;;;;;18.00;16.75;;;;;9.20;69.57;101468.91;4907182;28;45277;-77
2022/11/04 22:40:56;;;;;;;;;17.25;15.50;;;;;9.24;69.38;101483.84;4924204;28;45773;-76
2022/11/04 22:43:23;;;;;;;;;22.00;18.25;;;;;9.08;69.54;101459.97;4943882;28;45527;-76
2022/11/04 22:45:53;;;;;;;;;26.00;23.00;;;;;9.43;69.48;101529.63;4926280;28;45457;-76
2022/11/04 22:48:18;;;;;;;;;14.25;14.00;;;;;9.13;69.34;101468.81;4935212;28;45213;-76